Terminal Aerodrome Forecast
Issued by NWS Medford, OR

Home | Current Version | Previous Version | Text Only | Print | Product List | Glossary On
Versions: 1 2 3 4 5 6 7 8 9 10 11 12 13 14 15 16 17 18
000
FTUS46 KMFR 241700 RRA
TAFMFR
TAF
KMFR 241754Z 2418/2518 VRB03KT P6SM -SHRA SCT008 OVC100
      TEMPO 2418/2419 BKN008
     FM241900 15005KT P6SM VCSH SCT020 BKN050 OVC080
     FM242100 15010KT P6SM SCT080=

USA.gov is the U.S. government's official web portal to all federal, state and local government web resources and services.